Time;durP1;ratioP1;P1;durP2;ratioP2;P2;SDS_P1;SDS_P2;PMS_P1;PMS_P2;Temp;Humidity;BMP_temperature;BMP_pressure;BME280_temperature;BME280_humidity;BME280_pressure;Samples;Min_cycle;Max_cycle;Signal;HPM_P1;HPM_P2
2021/05/31 00:01:21;;;;;;;6.10;5.33;;;;;;;13.20;66.48;101696.59;5056966;28;20208;-77
2021/05/31 00:03:47;;;;;;;6.40;5.80;;;;;;;13.13;66.64;101693.34;5057359;28;22184;-78
2021/05/31 00:06:13;;;;;;;7.20;5.50;;;;;;;13.08;67.33;101695.44;5057389;28;20213;-79
2021/05/31 00:08:39;;;;;;;6.40;5.30;;;;;;;13.04;67.51;101699.25;5057319;28;20212;-78
2021/05/31 00:11:05;;;;;;;6.57;5.50;;;;;;;12.98;67.46;101696.91;5055083;28;20205;-78
2021/05/31 00:13:31;;;;;;;5.83;5.23;;;;;;;12.94;67.89;101690.00;5056903;28;20206;-78
2021/05/31 00:15:58;;;;;;;7.13;5.80;;;;;;;12.88;67.57;101684.16;5056692;28;20201;-77
2021/05/31 00:18:24;;;;;;;6.50;5.77;;;;;;;12.84;68.06;101689.69;5057071;28;20295;-77
2021/05/31 00:20:51;;;;;;;7.07;5.50;;;;;;;12.84;68.25;101688.81;5056943;28;20213;-78
2021/05/31 00:23:17;;;;;;;6.87;5.70;;;;;;;12.81;68.38;101689.84;5056912;28;20210;-78
2021/05/31 00:25:44;;;;;;;6.00;5.37;;;;;;;12.80;68.25;101682.78;5056411;28;20226;-77
2021/05/31 00:28:10;;;;;;;6.23;5.43;;;;;;;12.77;68.18;101679.41;5056148;28;20215;-78
2021/05/31 00:30:37;;;;;;;7.50;5.73;;;;;;;12.75;68.37;101684.84;5056890;28;20284;-77
2021/05/31 00:33:04;;;;;;;6.07;5.30;;;;;;;12.73;68.57;101675.16;5055998;28;20216;-78
2021/05/31 00:35:30;;;;;;;6.00;5.10;;;;;;;12.69;68.56;101682.53;5056941;28;20243;-79
2021/05/31 00:37:56;;;;;;;5.37;4.87;;;;;;;12.65;68.28;101682.78;5038810;28;20202;-78
2021/05/31 00:40:24;;;;;;;5.80;5.30;;;;;;;12.59;68.19;101678.63;5045242;28;20312;-78
2021/05/31 00:42:50;;;;;;;5.80;5.20;;;;;;;12.52;68.27;101679.94;5053848;28;20205;-78
2021/05/31 00:45:16;;;;;;;8.00;5.60;;;;;;;12.45;68.32;101682.06;5047368;28;20222;-78
2021/05/31 00:47:43;;;;;;;7.70;5.87;;;;;;;12.37;68.62;101683.41;5055237;28;20213;-78
2021/05/31 00:50:12;;;;;;;6.20;5.50;;;;;;;12.30;68.89;101682.03;5054163;28;20211;-79
2021/05/31 00:52:38;;;;;;;6.20;5.43;;;;;;;12.24;69.11;101687.69;5054441;28;20722;-77
2021/05/31 00:55:05;;;;;;;8.37;5.33;;;;;;;12.18;69.39;101686.25;5048141;28;20218;-78
2021/05/31 00:57:32;;;;;;;7.07;5.20;;;;;;;12.13;69.45;101680.28;5047970;28;20313;-79
2021/05/31 00:59:58;;;;;;;6.10;5.50;;;;;;;12.09;69.62;101684.03;5055594;28;20232;-80
2021/05/31 01:02:25;;;;;;;6.20;5.60;;;;;;;12.07;70.21;101685.94;5050046;28;20202;-78
2021/05/31 01:04:51;;;;;;;7.30;5.47;;;;;;;12.05;70.09;101687.81;5056770;28;20311;-78
2021/05/31 01:07:26;;;;;;;7.00;5.40;;;;;;;12.05;70.30;101682.47;5055996;28;20598;-79
2021/05/31 01:10:00;;;;;;;5.87;5.37;;;;;;;12.03;70.05;101687.03;5059933;28;20685;-79
2021/05/31 01:12:29;;;;;;;6.80;5.63;;;;;;;11.95;69.84;101679.44;5054058;28;20200;-78
2021/05/31 01:15:02;;;;;;;4.97;4.37;;;;;;;11.88;69.86;101675.34;5049672;28;20313;-78
2021/05/31 01:17:38;;;;;;;6.33;5.50;;;;;;;11.83;69.90;101683.59;5049552;28;20191;-78
2021/05/31 01:20:10;;;;;;;7.20;5.27;;;;;;;11.77;70.05;101678.59;5049356;28;20197;-78
2021/05/31 01:22:39;;;;;;;5.93;5.37;;;;;;;11.72;70.57;101679.72;5054212;28;20201;-78
2021/05/31 01:25:28;;;;;;;5.70;5.13;;;;;;;11.67;70.29;101681.75;5053528;28;20252;-78
2021/05/31 01:28:28;;;;;;;6.00;5.13;;;;;;;11.61;70.51;101682.09;5047138;28;20599;-77
2021/05/31 01:30:57;;;;;;;6.77;5.30;;;;;;;11.57;70.85;101689.41;5021686;28;20255;-78
2021/05/31 01:33:27;;;;;;;6.60;5.47;;;;;;;11.51;70.84;101684.34;5049656;28;20202;-79
2021/05/31 01:35:56;;;;;;;6.37;5.53;;;;;;;11.45;70.93;101682.03;5055211;28;20201;-78
2021/05/31 01:38:23;;;;;;;7.37;5.63;;;;;;;11.42;71.08;101684.84;5052567;28;20207;-77
2021/05/31 01:40:50;;;;;;;7.77;5.97;;;;;;;11.37;71.33;101677.06;5055456;28;20211;-79
2021/05/31 01:43:17;;;;;;;7.33;6.57;;;;;;;11.35;71.49;101681.59;5052686;28;20663;-78
2021/05/31 01:45:44;;;;;;;7.23;6.30;;;;;;;11.34;71.26;101684.34;5048799;28;20233;-79
2021/05/31 01:48:12;;;;;;;7.07;5.83;;;;;;;11.32;71.57;101684.41;5053882;28;20206;-78
2021/05/31 01:50:40;;;;;;;10.80;6.50;;;;;;;11.32;71.70;101683.56;5051592;28;20240;-79
2021/05/31 01:53:06;;;;;;;7.27;6.47;;;;;;;11.31;71.75;101676.50;5054063;28;20205;-79
2021/05/31 01:55:33;;;;;;;6.73;6.13;;;;;;;11.30;71.73;101680.09;5044226;28;20223;-78
2021/05/31 01:58:00;;;;;;;6.83;6.13;;;;;;;11.27;71.77;101680.28;5048955;28;20550;-78
2021/05/31 02:00:26;;;;;;;6.40;5.80;;;;;;;11.25;71.71;101679.50;5052465;28;20243;-78
2021/05/31 02:02:52;;;;;;;7.13;5.87;;;;;;;11.22;71.80;101682.31;5049367;28;20231;-78
2021/05/31 02:05:20;;;;;;;8.43;6.13;;;;;;;11.19;71.39;101680.66;5057927;28;20225;-77
2021/05/31 02:07:46;;;;;;;7.00;5.90;;;;;;;11.16;71.78;101671.94;5052690;28;20663;-79
2021/05/31 02:10:14;;;;;;;6.00;5.40;;;;;;;11.09;71.51;101666.91;5055581;28;20210;-78
2021/05/31 02:12:44;;;;;;;7.33;5.40;;;;;;;11.02;70.94;101673.47;5051027;28;20206;-79
2021/05/31 02:15:14;;;;;;;7.40;5.50;;;;;;;10.96;70.97;101671.09;5052121;28;20228;-79
2021/05/31 02:17:43;;;;;;;7.13;5.23;;;;;;;10.88;70.89;101673.28;5053951;28;20213;-78
2021/05/31 02:20:12;;;;;;;5.47;4.17;;;;;;;10.81;70.79;101674.50;5046689;28;20198;-79
2021/05/31 02:22:43;;;;;;;6.03;5.40;;;;;;;10.75;71.30;101667.66;5053473;28;20213;-79
2021/05/31 02:25:11;;;;;;;6.30;5.70;;;;;;;10.70;71.46;101669.72;5053872;28;20225;-78
2021/05/31 02:27:37;;;;;;;7.40;6.37;;;;;;;10.68;71.41;101673.38;5054574;28;20608;-77
2021/05/31 02:30:04;;;;;;;7.30;6.17;;;;;;;10.67;72.30;101674.31;5055771;28;20205;-79
2021/05/31 02:32:31;;;;;;;8.83;7.10;;;;;;;10.66;72.15;101669.91;5057722;28;20209;-79
2021/05/31 02:34:57;;;;;;;8.10;7.30;;;;;;;10.66;72.74;101676.13;5054709;28;20236;-78
2021/05/31 02:37:30;;;;;;;8.00;7.17;;;;;;;10.67;72.75;101676.97;5050611;28;20206;-78
2021/05/31 02:39:57;;;;;;;8.17;7.10;;;;;;;10.65;73.11;101677.06;5055007;28;20197;-78
2021/05/31 02:42:23;;;;;;;8.80;6.90;;;;;;;10.63;72.85;101676.25;5050337;28;20203;-79
2021/05/31 02:44:49;;;;;;;7.80;6.97;;;;;;;10.62;73.10;101681.66;5052655;28;20233;-78
2021/05/31 02:47:15;;;;;;;9.97;7.27;;;;;;;10.60;73.29;101675.53;5051028;28;20209;-79
2021/05/31 02:49:41;;;;;;;9.33;7.60;;;;;;;10.58;73.20;101672.06;5054498;28;20217;-77
2021/05/31 02:52:08;;;;;;;9.67;7.07;;;;;;;10.56;73.79;101680.16;5049597;28;20217;-77
2021/05/31 02:54:34;;;;;;;8.30;6.70;;;;;;;10.55;73.37;101682.91;5055952;28;20226;-79
2021/05/31 02:57:01;;;;;;;9.80;7.70;;;;;;;10.53;73.60;101679.44;5055386;28;20206;-79
2021/05/31 02:59:27;;;;;;;8.43;6.33;;;;;;;10.48;73.50;101682.31;5054477;28;20202;-79
2021/05/31 03:01:53;;;;;;;7.70;6.43;;;;;;;10.43;73.15;101678.97;5057937;28;20212;-78
2021/05/31 03:04:19;;;;;;;8.90;6.17;;;;;;;10.38;73.11;101687.22;5056150;28;20251;-77
2021/05/31 03:06:45;;;;;;;6.90;6.20;;;;;;;10.33;73.06;101675.91;5056667;28;20213;-78
2021/05/31 03:09:11;;;;;;;8.03;6.37;;;;;;;10.30;73.49;101684.00;5059956;28;20574;-79
2021/05/31 03:11:37;;;;;;;7.67;6.40;;;;;;;10.27;73.21;101683.28;5059498;28;20205;-78
2021/05/31 03:14:05;;;;;;;7.70;6.83;;;;;;;10.26;73.14;101681.56;5068175;28;20277;-80
2021/05/31 03:16:31;;;;;;;7.90;7.10;;;;;;;10.25;74.12;101683.34;5060175;28;20216;-78
2021/05/31 03:18:57;;;;;;;9.43;6.87;;;;;;;10.25;73.88;101688.69;5057218;28;20206;-78
2021/05/31 03:21:23;;;;;;;7.23;6.30;;;;;;;10.23;73.57;101685.22;5058896;28;20215;-79
2021/05/31 03:23:49;;;;;;;7.20;6.50;;;;;;;10.18;73.83;101689.00;5057302;28;20268;-77
2021/05/31 03:26:15;;;;;;;6.30;5.73;;;;;;;10.09;73.35;101687.63;5054591;28;20599;-76
2021/05/31 03:28:41;;;;;;;5.40;4.20;;;;;;;10.00;73.10;101688.91;5059497;28;20212;-78
2021/05/31 03:31:08;;;;;;;4.47;3.27;;;;;;;9.94;73.01;101693.63;5055822;28;20265;-77
2021/05/31 03:33:34;;;;;;;4.30;3.83;;;;;;;9.90;73.09;101689.34;5055639;28;20300;-78
2021/05/31 03:36:00;;;;;;;4.53;4.10;;;;;;;9.89;73.07;101692.94;5052307;28;20208;-77
2021/05/31 03:38:26;;;;;;;5.17;4.67;;;;;;;9.87;73.50;101692.16;5054125;28;20197;-77
2021/05/31 03:40:52;;;;;;;5.13;4.33;;;;;;;9.87;73.42;101700.13;5054693;28;20213;-78
2021/05/31 03:43:18;;;;;;;4.60;4.20;;;;;;;9.85;73.68;101700.22;5054633;28;20206;-79
2021/05/31 03:45:44;;;;;;;5.57;4.93;;;;;;;9.82;74.24;101699.50;5052430;28;20243;-77
2021/05/31 03:48:12;;;;;;;6.07;5.10;;;;;;;9.81;73.85;101700.41;5057068;28;20239;-78
2021/05/31 03:50:39;;;;;;;5.33;4.83;;;;;;;9.78;73.65;101687.25;5053395;28;20214;-78
2021/05/31 03:53:05;;;;;;;6.60;5.57;;;;;;;9.78;74.28;101697.88;5056265;28;20657;-78
2021/05/31 03:55:31;;;;;;;5.43;4.53;;;;;;;9.78;74.34;101695.22;5055198;28;20229;-78
2021/05/31 03:57:57;;;;;;;6.33;5.20;;;;;;;9.74;74.08;101692.69;5051564;28;20202;-77
2021/05/31 04:00:24;;;;;;;7.47;6.00;;;;;;;9.69;74.45;101697.34;5056340;28;20205;-79
2021/05/31 04:02:50;;;;;;;6.93;5.03;;;;;;;9.66;74.30;101699.28;5055262;28;20205;-78
2021/05/31 04:05:18;;;;;;;5.80;5.20;;;;;;;9.64;74.36;101696.69;5052026;28;20233;-78
2021/05/31 04:13:12;;;;;;;7.27;6.30;;;;;;;9.65;74.81;101703.75;5056323;28;20204;-80
2021/05/31 04:15:39;;;;;;;8.77;6.90;;;;;;;9.66;75.25;101694.84;5054146;28;20222;-80
2021/05/31 04:18:05;;;;;;;9.17;6.67;;;;;;;9.71;75.11;101702.59;5050370;28;20201;-81
2021/05/31 04:20:33;;;;;;;7.60;6.57;;;;;;;9.74;75.69;101705.13;5056149;28;20679;-80
2021/05/31 04:22:59;;;;;;;7.70;6.90;;;;;;;9.80;75.14;101709.34;5057218;28;20198;-80
2021/05/31 04:25:25;;;;;;;7.33;5.90;;;;;;;9.84;75.64;101710.94;5046261;28;20230;-80
2021/05/31 04:27:51;;;;;;;8.60;6.03;;;;;;;9.86;75.80;101707.25;5051155;28;20202;-79
2021/05/31 04:30:18;;;;;;;7.90;5.63;;;;;;;9.90;75.72;101705.31;5047590;28;20665;-78
2021/05/31 04:32:44;;;;;;;9.20;5.90;;;;;;;9.93;75.65;101714.03;5049086;28;20285;-80
2021/05/31 04:35:11;;;;;;;6.47;5.87;;;;;;;9.96;75.49;101710.38;5047390;28;20237;-78
2021/05/31 04:37:38;;;;;;;9.20;6.23;;;;;;;9.98;75.81;101705.88;5051879;28;20251;-79
2021/05/31 04:40:06;;;;;;;7.03;6.33;;;;;;;9.99;75.28;101708.47;5052608;28;20231;-80
2021/05/31 04:42:32;;;;;;;6.93;6.00;;;;;;;10.02;75.72;101713.66;5045771;28;20586;-79
2021/05/31 04:44:58;;;;;;;8.30;5.90;;;;;;;10.05;75.74;101720.63;5047470;28;21309;-77
2021/05/31 04:47:25;;;;;;;10.93;6.07;;;;;;;10.08;75.63;101717.81;5048762;28;20289;-77
2021/05/31 04:49:51;;;;;;;6.47;5.60;;;;;;;10.09;75.74;101712.44;5051705;28;20328;-79
2021/05/31 04:52:17;;;;;;;8.37;6.13;;;;;;;10.14;75.84;101712.25;5055030;28;20228;-78
2021/05/31 04:54:47;;;;;;;7.43;6.10;;;;;;;10.18;75.18;101715.63;5057237;28;20261;-79
2021/05/31 04:57:13;;;;;;;8.03;6.17;;;;;;;10.20;75.26;101708.47;5053076;28;20643;-78
2021/05/31 04:59:39;;;;;;;7.10;6.23;;;;;;;10.21;75.70;101713.69;5050462;28;20208;-77
2021/05/31 05:02:05;;;;;;;6.63;5.97;;;;;;;10.23;75.71;101709.19;5048935;28;20293;-78
2021/05/31 05:04:31;;;;;;;8.80;6.40;;;;;;;10.27;75.39;101707.25;5049790;28;20237;-78
2021/05/31 05:06:57;;;;;;;8.37;6.17;;;;;;;10.32;75.86;101707.91;5053132;28;20214;-78
2021/05/31 05:09:24;;;;;;;8.47;5.37;;;;;;;10.36;75.43;101702.38;5045530;28;20372;-78
2021/05/31 05:11:51;;;;;;;6.13;4.80;;;;;;;10.41;75.53;101702.16;5054351;28;20223;-79
2021/05/31 05:14:18;;;;;;;8.73;5.13;;;;;;;10.46;75.17;101699.28;5050523;28;20222;-79
2021/05/31 05:16:44;;;;;;;7.00;5.37;;;;;;;10.50;75.16;101703.53;5051563;28;20621;-78
2021/05/31 05:19:10;;;;;;;5.80;5.10;;;;;;;10.57;74.52;101697.00;5050684;28;20213;-78
2021/05/31 05:21:36;;;;;;;6.67;5.17;;;;;;;10.65;74.91;101689.50;5044410;28;20217;-78
2021/05/31 05:24:03;;;;;;;6.67;5.10;;;;;;;10.74;74.14;101697.06;5049009;28;20596;-78
2021/05/31 05:26:29;;;;;;;7.00;5.20;;;;;;;10.84;73.83;101698.34;5043788;28;20669;-78
2021/05/31 05:28:56;;;;;;;9.00;5.47;;;;;;;10.94;74.25;101696.09;5051593;28;20668;-78
2021/05/31 05:31:22;;;;;;;7.00;4.90;;;;;;;11.05;73.60;101699.13;5052675;28;20206;-77
2021/05/31 05:33:48;;;;;;;7.03;4.87;;;;;;;11.18;73.28;101692.25;5044388;28;20584;-77
2021/05/31 05:36:21;;;;;;;7.53;4.93;;;;;;;11.31;72.59;101687.16;5048214;28;20206;-77
2021/05/31 05:41:37;;;;;;;6.10;5.50;;;;;;;11.67;72.20;101698.66;5030701;28;20214;-77
2021/05/31 05:47:31;;;;;;;6.83;5.07;;;;;;;12.04;71.10;101694.09;5042705;28;20198;-77
2021/05/31 05:49:49;;;;;;;5.97;5.10;;;;;;;12.23;70.93;101697.50;5054312;28;20201;-77
2021/05/31 05:52:16;;;;;;;6.77;5.10;;;;;;;12.42;70.56;101702.72;5054190;28;20206;-77
2021/05/31 05:54:42;;;;;;;6.00;5.30;;;;;;;12.59;69.84;101702.66;5054578;28;20221;-77
2021/05/31 05:57:08;;;;;;;7.10;5.27;;;;;;;12.73;69.20;101697.41;5050272;28;20891;-77
2021/05/31 05:59:35;;;;;;;5.30;4.80;;;;;;;12.86;69.05;101698.47;5054864;28;20201;-78
2021/05/31 06:02:02;;;;;;;7.00;5.40;;;;;;;13.03;68.53;101699.34;5047473;28;20292;-77
2021/05/31 06:04:28;;;;;;;5.57;4.33;;;;;;;13.19;68.35;101698.41;5052882;28;20229;-78
2021/05/31 06:06:54;;;;;;;6.93;4.63;;;;;;;13.34;67.30;101701.13;5055505;28;20213;-78
2021/05/31 06:09:21;;;;;;;5.37;3.90;;;;;;;13.51;66.78;101704.53;5056366;28;20252;-78
2021/05/31 06:11:47;;;;;;;7.20;5.07;;;;;;;13.68;66.11;101702.69;5052359;28;20204;-77
2021/05/31 06:14:13;;;;;;;4.43;4.03;;;;;;;13.85;65.38;101703.41;5059426;28;20217;-76
2021/05/31 06:16:40;;;;;;;7.97;4.50;;;;;;;14.01;65.38;101706.00;5056281;28;20201;-77
2021/05/31 06:19:07;;;;;;;7.00;4.53;;;;;;;14.19;64.49;101706.69;5053301;28;20288;-77
2021/05/31 06:21:33;;;;;;;5.57;4.17;;;;;;;14.32;63.60;101712.19;5053762;28;20286;-77
2021/05/31 06:23:59;;;;;;;6.43;4.37;;;;;;;14.45;63.10;101708.66;5048728;28;20227;-77
2021/05/31 06:26:25;;;;;;;6.80;4.07;;;;;;;14.57;62.36;101710.56;5053874;28;20218;-77
2021/05/31 06:28:51;;;;;;;6.43;4.03;;;;;;;14.65;61.25;101703.88;5055813;28;20660;-78
2021/05/31 06:31:19;;;;;;;4.43;4.00;;;;;;;14.74;60.51;101706.81;5054691;28;20617;-78
2021/05/31 06:33:46;;;;;;;6.17;4.27;;;;;;;14.84;60.59;101699.91;5053176;28;20197;-77
2021/05/31 06:36:12;;;;;;;6.67;4.40;;;;;;;14.97;60.15;101701.78;5054563;28;20701;-77
2021/05/31 06:38:39;;;;;;;6.40;4.77;;;;;;;15.07;60.08;101698.38;5054220;28;20660;-77
2021/05/31 06:41:05;;;;;;;4.63;4.23;;;;;;;15.17;59.48;101699.53;5054898;28;20208;-78
2021/05/31 06:43:31;;;;;;;5.50;3.93;;;;;;;15.25;59.47;101693.63;5053909;28;20296;-77
2021/05/31 06:45:59;;;;;;;6.23;4.43;;;;;;;15.36;58.54;101693.81;5060669;28;20221;-77
2021/05/31 06:48:26;;;;;;;5.70;4.27;;;;;;;15.44;58.25;101687.91;5049867;28;20211;-77
2021/05/31 06:50:53;;;;;;;4.97;4.30;;;;;;;15.54;58.03;101695.25;5053417;28;20205;-77
2021/05/31 06:53:19;;;;;;;6.83;4.63;;;;;;;15.65;57.52;101694.53;5052803;28;20268;-77
2021/05/31 06:55:45;;;;;;;7.90;4.43;;;;;;;15.75;57.00;101698.34;5047913;28;20218;-77
2021/05/31 06:58:12;;;;;;;5.10;4.33;;;;;;;15.85;57.06;101699.41;5052022;28;20255;-77
2021/05/31 07:00:39;;;;;;;4.83;4.23;;;;;;;15.95;56.23;101691.56;5052434;28;20198;-77
2021/05/31 07:03:05;;;;;;;5.27;4.00;;;;;;;16.09;55.34;101693.31;5054703;28;20205;-77
2021/05/31 07:05:31;;;;;;;5.17;3.87;;;;;;;16.17;55.41;101693.63;5053198;28;20270;-77
2021/05/31 07:07:59;;;;;;;7.17;3.90;;;;;;;16.29;54.99;101690.94;5051506;28;20203;-77
2021/05/31 07:10:27;;;;;;;4.67;3.37;;;;;;;16.41;54.51;101699.09;5052680;28;20209;-77
2021/05/31 07:12:53;;;;;;;6.67;3.73;;;;;;;16.51;53.72;101698.31;5054141;28;20293;-77
2021/05/31 07:15:20;;;;;;;5.70;3.83;;;;;;;16.58;52.87;101691.56;5055536;28;20229;-76
2021/05/31 07:17:46;;;;;;;6.30;3.80;;;;;;;16.72;53.05;101695.97;5053661;28;20195;-76
2021/05/31 07:20:15;;;;;;;5.60;4.20;;;;;;;16.90;52.86;101700.00;5053867;28;20202;-76
2021/05/31 07:22:43;;;;;;;4.93;3.77;;;;;;;17.07;51.95;101685.28;5053442;28;20213;-77
2021/05/31 07:25:14;;;;;;;6.47;3.80;;;;;;;17.16;51.05;101681.94;5071009;28;20237;-77
2021/05/31 07:27:40;;;;;;;5.07;3.90;;;;;;;17.23;50.48;101683.19;5055336;28;20290;-77
2021/05/31 07:30:07;;;;;;;4.03;3.60;;;;;;;17.30;50.00;101686.28;5051297;28;20197;-76
2021/05/31 07:32:34;;;;;;;5.57;3.47;;;;;;;17.39;49.76;101688.25;5050638;28;20207;-77
2021/05/31 07:35:00;;;;;;;4.60;3.30;;;;;;;17.50;48.92;101684.78;5050185;28;20271;-77
2021/05/31 07:37:26;;;;;;;6.70;3.73;;;;;;;17.58;48.83;101683.19;5050533;28;20289;-77
2021/05/31 07:39:52;;;;;;;3.37;2.97;;;;;;;17.69;48.26;101691.38;5050737;28;20207;-77
2021/05/31 07:42:19;;;;;;;3.43;3.00;;;;;;;17.76;46.85;101680.97;5047031;28;20630;-77
2021/05/31 07:44:45;;;;;;;3.87;3.17;;;;;;;17.82;46.96;101685.88;5042037;28;20255;-77
2021/05/31 07:47:11;;;;;;;5.30;3.07;;;;;;;17.93;46.16;101687.75;5045814;28;20211;-77
2021/05/31 07:49:37;;;;;;;6.00;3.23;;;;;;;18.03;46.11;101686.91;5054032;28;20206;-77
2021/05/31 07:52:08;;;;;;;6.23;2.77;;;;;;;18.09;45.79;101691.00;5041713;28;20205;-77
2021/05/31 07:54:35;;;;;;;4.50;3.00;;;;;;;18.17;44.97;101690.38;5052028;28;20236;-77
2021/05/31 07:57:01;;;;;;;4.03;2.97;;;;;;;18.24;45.21;101684.38;5055459;28;20670;-77
2021/05/31 07:59:28;;;;;;;5.13;3.10;;;;;;;18.38;45.55;101681.44;5058678;28;20209;-77
2021/05/31 08:01:54;;;;;;;3.07;2.77;;;;;;;18.53;45.15;101682.03;5060234;28;20289;-77
2021/05/31 08:04:20;;;;;;;5.03;2.57;;;;;;;18.62;43.84;101684.03;5069021;28;20231;-77
2021/05/31 08:06:46;;;;;;;2.47;2.17;;;;;;;18.72;43.50;101686.84;5053916;28;20210;-77
2021/05/31 08:09:13;;;;;;;2.43;2.17;;;;;;;18.80;42.67;101684.41;5045038;28;20207;-77
2021/05/31 08:11:39;;;;;;;3.70;2.63;;;;;;;18.89;42.49;101674.66;5057550;28;20682;-77
2021/05/31 08:14:05;;;;;;;3.03;2.73;;;;;;;19.00;42.43;101680.03;5056745;28;20222;-77
2021/05/31 08:16:32;;;;;;;4.17;2.70;;;;;;;19.12;42.81;101673.63;5057949;28;20224;-77
2021/05/31 08:18:58;;;;;;;3.20;2.30;;;;;;;19.29;42.84;101678.50;5057493;28;20200;-78
2021/05/31 08:21:26;;;;;;;4.00;3.00;;;;;;;19.41;41.64;101676.59;5057711;28;20206;-77
2021/05/31 08:23:52;;;;;;;5.37;2.77;;;;;;;19.47;41.19;101675.22;5057559;28;20228;-77
2021/05/31 08:26:20;;;;;;;3.87;2.57;;;;;;;19.54;41.12;101680.00;5053507;28;20273;-77
2021/05/31 08:28:46;;;;;;;6.67;2.87;;;;;;;19.62;40.74;101679.34;5057324;28;20234;-77
2021/05/31 08:31:12;;;;;;;4.23;2.97;;;;;;;19.65;40.45;101674.56;5054249;28;20249;-78
2021/05/31 08:33:40;;;;;;;4.80;2.80;;;;;;;19.72;40.65;101666.75;5060651;28;20205;-77
2021/05/31 08:36:07;;;;;;;4.27;2.77;;;;;;;19.81;40.43;101671.41;5050046;28;20214;-77
2021/05/31 08:38:33;;;;;;;5.03;2.80;;;;;;;19.90;40.86;101672.44;5054643;28;20207;-77
2021/05/31 08:40:59;;;;;;;4.70;2.80;;;;;;;20.00;39.88;101667.94;5056504;28;20209;-77
2021/05/31 08:43:26;;;;;;;5.27;2.97;;;;;;;19.96;39.58;101674.63;5041816;28;20208;-77
2021/05/31 08:45:52;;;;;;;4.70;3.13;;;;;;;19.96;39.53;101672.78;5052006;28;20226;-77
2021/05/31 08:48:18;;;;;;;4.73;3.00;;;;;;;19.94;39.10;101671.19;5057785;28;20207;-77
2021/05/31 08:50:45;;;;;;;4.87;3.23;;;;;;;20.01;39.57;101664.25;5049568;28;20202;-77
2021/05/31 08:53:13;;;;;;;4.50;3.17;;;;;;;20.16;39.53;101664.75;5052785;28;20226;-77
2021/05/31 08:55:39;;;;;;;4.07;2.60;;;;;;;20.31;38.86;101669.69;5063532;28;20271;-77
2021/05/31 08:58:05;;;;;;;2.90;2.57;;;;;;;20.42;38.20;101661.50;5046932;28;20558;-77
2021/05/31 09:00:34;;;;;;;5.47;2.60;;;;;;;20.47;38.05;101655.69;5053922;28;20215;-78
2021/05/31 09:03:02;;;;;;;3.57;2.30;;;;;;;20.54;37.58;101662.28;5054209;28;20651;-77
2021/05/31 09:05:31;;;;;;;3.47;2.57;;;;;;;20.61;36.91;101660.72;5053258;28;20255;-78
2021/05/31 09:08:01;;;;;;;4.57;2.10;;;;;;;20.67;35.96;101654.75;5055413;28;20255;-78
2021/05/31 09:10:34;;;;;;;9.13;2.50;;;;;;;20.67;35.65;101657.47;5049160;28;20622;-77
2021/05/31 09:13:01;;;;;;;4.33;2.43;;;;;;;20.74;35.07;101655.94;5063690;28;20264;-77
2021/05/31 09:15:27;;;;;;;4.53;2.30;;;;;;;20.79;35.14;101647.38;5055081;28;20725;-77
2021/05/31 09:17:53;;;;;;;2.87;2.07;;;;;;;20.83;34.62;101653.38;5056997;28;20205;-77
2021/05/31 09:20:19;;;;;;;3.30;2.37;;;;;;;20.84;33.90;101649.66;5061880;28;20216;-77
2021/05/31 09:22:47;;;;;;;4.73;2.07;;;;;;;20.84;34.05;101647.81;5057796;28;20210;-77
2021/05/31 09:25:25;;;;;;;3.13;1.87;;;;;;;20.88;33.55;101656.50;5048637;28;20232;-78
2021/05/31 09:27:52;;;;;;;3.27;1.77;;;;;;;20.88;32.69;101646.53;5054932;28;20628;-77
2021/05/31 09:30:18;;;;;;;3.70;1.73;;;;;;;20.83;32.08;101647.94;5052986;28;20716;-77
2021/05/31 09:32:51;;;;;;;3.30;1.70;;;;;;;20.83;32.09;101642.53;5045864;28;20194;-77
2021/05/31 09:35:21;;;;;;;30.80;4.73;;;;;;;20.86;31.92;101643.13;5056993;28;20756;-77
2021/05/31 09:37:48;;;;;;;9.00;3.00;;;;;;;20.90;31.41;101644.56;5052545;28;20199;-77
2021/05/31 09:40:18;;;;;;;4.30;1.97;;;;;;;21.02;32.12;101645.28;5044317;28;20220;-77
2021/05/31 09:42:50;;;;;;;6.37;2.50;;;;;;;21.21;32.32;101645.31;5056371;28;20214;-77
2021/05/31 09:45:16;;;;;;;1.83;1.30;;;;;;;21.32;31.05;101641.63;5061649;28;20243;-77
2021/05/31 09:47:42;;;;;;;2.97;1.40;;;;;;;21.30;29.55;101630.09;5054891;28;20219;-77
2021/05/31 09:50:10;;;;;;;3.37;1.60;;;;;;;21.33;29.57;101636.06;5052943;28;20205;-77
2021/05/31 09:52:36;;;;;;;2.40;1.42;;;;;;;21.38;28.69;101638.34;5054497;28;20235;-78
2021/05/31 09:55:05;;;;;;;2.33;1.30;;;;;;;21.43;27.44;101636.94;5053787;28;20220;-77
2021/05/31 09:57:34;;;;;;;2.50;1.30;;;;;;;21.43;27.29;101636.06;5056101;28;20237;-77
2021/05/31 10:00:08;;;;;;;2.00;1.15;;;;;;;21.45;27.07;101637.63;5054281;28;20205;-77
2021/05/31 10:02:44;;;;;;;2.00;1.47;;;;;;;21.50;26.59;101631.75;5053314;28;20288;-77
2021/05/31 10:05:22;;;;;;;2.15;1.10;;;;;;;21.55;27.04;101645.75;5055147;28;20290;-76
2021/05/31 10:07:54;;;;;;;1.30;1.20;;;;;;;21.61;26.65;101631.63;5044805;28;20193;-77
2021/05/31 10:10:20;;;;;;;2.17;1.10;;;;;;;21.68;27.39;101631.88;5043535;28;20235;-77
2021/05/31 10:12:48;;;;;;;2.33;1.25;;;;;;;21.66;26.85;101628.50;5059779;28;20569;-77
2021/05/31 10:15:18;;;;;;;2.10;1.13;;;;;;;21.70;27.38;101630.75;5054594;28;20223;-77
2021/05/31 10:17:47;;;;;;;2.78;1.40;;;;;;;21.71;27.46;101628.88;5048528;28;20243;-78
2021/05/31 10:20:14;;;;;;;2.97;1.43;;;;;;;21.75;27.51;101627.59;5049640;28;20214;-77
2021/05/31 10:22:40;;;;;;;1.53;1.03;;;;;;;21.81;27.23;101619.75;5052269;28;20223;-77
2021/05/31 10:25:09;;;;;;;4.47;1.40;;;;;;;21.76;26.19;101621.19;5046874;28;20232;-77
2021/05/31 10:27:36;;;;;;;1.75;1.13;;;;;;;21.73;25.88;101618.75;5042373;28;20652;-76
2021/05/31 10:30:07;;;;;;;2.28;1.10;;;;;;;21.78;27.14;101613.75;5056102;28;20208;-77
2021/05/31 10:32:34;;;;;;;1.73;0.80;;;;;;;21.90;26.62;101611.72;5060271;28;20208;-77
2021/05/31 10:35:00;;;;;;;1.60;1.00;;;;;;;21.95;26.96;101606.72;5050382;28;20228;-77
2021/05/31 10:37:28;;;;;;;1.45;1.23;;;;;;;22.08;26.67;101594.56;5054688;28;20207;-76
2021/05/31 10:40:13;;;;;;;1.67;0.70;;;;;;;22.22;26.21;101604.06;5051408;28;20221;-77
2021/05/31 10:42:41;;;;;;;1.52;0.90;;;;;;;22.33;25.85;101592.16;5041794;28;20193;-77
2021/05/31 10:45:28;;;;;;;2.45;1.00;;;;;;;22.39;25.60;101592.41;5058663;28;20243;-76
2021/05/31 10:48:01;;;;;;;2.72;1.10;;;;;;;22.40;25.48;101593.25;5051388;28;20288;-76
2021/05/31 10:50:33;;;;;;;1.30;0.85;;;;;;;22.36;25.86;101590.03;5048665;28;20208;-76
2021/05/31 10:53:00;;;;;;;1.88;0.80;;;;;;;22.39;25.52;101592.41;5051479;28;20562;-77
2021/05/31 10:55:27;;;;;;;0.75;0.73;;;;;;;22.38;24.32;101590.72;5050997;28;20228;-77
2021/05/31 10:57:55;;;;;;;2.03;1.00;;;;;;;22.35;23.93;101592.88;5048054;28;20201;-76
2021/05/31 11:00:23;;;;;;;1.55;1.08;;;;;;;22.41;24.19;101597.69;5061044;28;20213;-77
2021/05/31 11:02:49;;;;;;;1.20;0.95;;;;;;;22.49;25.48;101597.78;5041073;28;20207;-77
2021/05/31 11:05:17;;;;;;;1.35;1.00;;;;;;;22.60;25.16;101589.44;5065335;28;20281;-77
2021/05/31 11:07:43;;;;;;;0.93;0.75;;;;;;;22.57;24.56;101589.75;5048119;28;20209;-76
2021/05/31 11:10:14;;;;;;;1.23;0.60;;;;;;;22.54;24.76;101587.34;5046284;28;20205;-77
2021/05/31 11:12:41;;;;;;;1.23;0.80;;;;;;;22.61;25.25;101583.00;5056718;28;20212;-77
2021/05/31 11:15:10;;;;;;;2.58;0.90;;;;;;;22.74;25.50;101583.50;5051187;28;20221;-77
2021/05/31 11:17:47;;;;;;;1.42;1.08;;;;;;;22.81;24.31;101581.03;5052592;28;20211;-76
2021/05/31 11:20:17;;;;;;;1.17;0.68;;;;;;;22.90;24.06;101579.28;5057678;28;20206;-76
2021/05/31 11:23:02;;;;;;;1.48;0.73;;;;;;;22.96;24.36;101576.78;5051506;28;20208;-76
2021/05/31 11:25:30;;;;;;;1.88;0.80;;;;;;;22.98;24.00;101573.91;5051156;28;20241;-76
2021/05/31 11:27:58;;;;;;;1.15;0.70;;;;;;;22.95;23.95;101566.06;5062391;28;20258;-77
2021/05/31 11:30:26;;;;;;;1.65;0.90;;;;;;;22.99;24.91;101567.47;5063793;28;20200;-77
2021/05/31 11:32:54;;;;;;;1.25;0.73;;;;;;;23.08;24.97;101564.69;5043916;28;20208;-76
2021/05/31 11:35:23;;;;;;;0.93;0.80;;;;;;;23.07;24.08;101562.97;5049706;28;20229;-77
2021/05/31 11:37:51;;;;;;;1.20;0.82;;;;;;;23.04;24.38;101554.28;5046932;28;20233;-77
2021/05/31 11:40:22;;;;;;;0.95;0.80;;;;;;;23.03;25.13;101558.00;5040210;28;20220;-76